Great Falls, MT (59401)

9:11 PM MDT on April 27, 2017 (GMT -0600)
Great Falls South SIde | | Change Station

Elev 3399 ft 47.50 °N, 111.27 °W | Updated 11 seconds ago

Mostly Cloudy
Mostly Cloudy
41.1 °F
Feels Like 41 °F
N
0.0
Wind Variable Wind from North
Gusts 0.0 mph

Today
High -- | Low -- °F
--% Chance of Precip.
Yesterday
High -- | Low -- °F
Precip. -- in
Pressure 29.90 in
Visibility 10.0 miles
Clouds Few 2300 ft
Overcast 5500 ft
Windchill 41 °F
Dew Point 37 °F
Humidity 85%
Rainfall 0.11 in
Snow Depth Not available.
6:14 AM 8:31 PM
Waxing Crescent, 4% visible
METAR KGTF 280253Z 36003KT 10SM FEW023 OVC055 04/02 A2983 RMK AO2 RAB0155E12 SLP123 P0000 60000 T00440017 53010
Pressure 29.90 in
Visibility 10.0 miles
Clouds Few 2300 ft
Overcast 5500 ft
Windchill 41 °F
Dew Point 37 °F
Humidity 85%
Rainfall 0.11 in
Snow Depth Not available.
6:14 AM 8:31 PM
Waxing Crescent, 4% visible
METAR KGTF 280253Z 36003KT 10SM FEW023 OVC055 04/02 A2983 RMK AO2 RAB0155E12 SLP123 P0000 60000 T00440017 53010

Get Severe Weather Alerts

Thanks for signing up!

Be on the lookout for a verification email in your inbox.

You'll start receiving the daily forecast at 8 AM.

×

10-Day Weather Forecast

Almanac

Astronomy

Apr. 27, 2017 Rise Set
Actual Time
Civil Twilight
Nautical Twilight
Astronomical Twilight
Moon
Length of Visible Light
Length of Day
Tomorrow will be .
, % of the Moon is Illuminated

Today's Extremes

State Highs State Lows

Community

WunderPhotos

WunderBlog® & News

Nearby

Air Quality

  Air Quality AQ Index Pollutant
Not available.

Snow Depth

Station Depth Elevation

Earthquake Activity

City Distance Mag. Time & Date
Minimum magnitude displayed is 2.5.

Coastal Water Temperatures

Place Temperature

Stations

Nearby Weather Stations

Station Location Temp. Windchill Dew Point Humidity Wind Precip. Elev Updated Type
                   

Watches & Warnings

There are currently no watches in effect.